createdAt,value
2018-03-17T00:00:17.571Z,51.69
2018-03-17T00:01:17.515Z,52.07
2018-03-17T00:02:17.460Z,52.07
2018-03-17T00:03:17.400Z,52.07
2018-03-17T00:04:17.349Z,52.17
2018-03-17T00:05:17.287Z,52.64
2018-03-17T00:06:17.240Z,51.60
2018-03-17T00:07:17.174Z,51.69
2018-03-17T00:08:17.118Z,51.79
2018-03-17T00:09:17.061Z,52.45
2018-03-17T00:10:17.005Z,52.26
2018-03-17T00:11:16.948Z,52.45
2018-03-17T00:12:16.891Z,52.55
2018-03-17T00:13:16.834Z,52.17
2018-03-17T00:14:16.779Z,51.98
2018-03-17T00:15:16.721Z,51.98
2018-03-17T00:16:16.664Z,51.69
2018-03-17T00:17:16.608Z,51.79
2018-03-17T00:18:16.551Z,52.07
2018-03-17T00:19:16.494Z,51.88
2018-03-17T00:20:16.437Z,51.79
2018-03-17T00:21:16.383Z,51.88
2018-03-17T00:22:16.324Z,51.98
2018-03-17T00:23:16.267Z,51.69
2018-03-17T00:24:16.211Z,51.76
2018-03-17T00:25:16.154Z,51.95
2018-03-17T00:26:16.099Z,51.39
2018-03-17T00:27:16.095Z,51.67
2018-03-17T00:28:15.983Z,51.57
2018-03-17T00:29:15.926Z,52.23
2018-03-17T00:30:15.869Z,52.80
2018-03-17T00:31:15.814Z,52.51
2018-03-17T00:32:15.755Z,52.51
2018-03-17T00:33:15.698Z,52.04
2018-03-17T00:34:15.641Z,51.86
2018-03-17T00:35:15.583Z,51.86
2018-03-17T00:36:15.526Z,52.61
2018-03-17T00:37:15.470Z,51.95
2018-03-17T00:38:15.413Z,51.76
2018-03-17T00:39:15.355Z,51.86
2018-03-17T00:40:15.298Z,52.14
2018-03-17T00:41:15.241Z,52.51
2018-03-17T00:42:15.184Z,51.95
2018-03-17T00:43:15.126Z,52.51
2018-03-17T00:44:15.069Z,52.61
2018-03-17T00:45:15.012Z,52.61
2018-03-17T00:46:14.955Z,52.14
2018-03-17T00:47:14.897Z,52.04
2018-03-17T00:48:14.839Z,52.04
2018-03-17T00:49:14.783Z,52.51
2018-03-17T00:50:14.726Z,52.61
2018-03-17T00:51:14.675Z,52.70
2018-03-17T00:52:14.644Z,52.23
2018-03-17T00:53:14.553Z,52.89
2018-03-17T00:54:14.497Z,52.61
2018-03-17T00:55:14.439Z,52.80
2018-03-17T00:56:14.382Z,53.18
2018-03-17T00:57:14.328Z,52.99
2018-03-17T00:58:14.274Z,52.89
2018-03-17T00:59:14.210Z,52.33
2018-03-17T01:00:14.153Z,52.33
2018-03-17T01:01:14.096Z,52.61
2018-03-17T01:02:14.039Z,52.61
2018-03-17T01:03:13.981Z,52.04
2018-03-17T01:04:13.924Z,51.95
2018-03-17T01:05:13.872Z,52.14
2018-03-17T01:06:13.810Z,52.51
2018-03-17T01:07:13.756Z,52.33
2018-03-17T01:08:13.694Z,52.23
2018-03-17T01:09:13.638Z,52.42
2018-03-17T01:10:13.581Z,53.18
2018-03-17T01:11:13.522Z,52.80
2018-03-17T01:12:13.466Z,52.89
2018-03-17T01:13:13.408Z,53.27
2018-03-17T01:14:13.352Z,53.27
2018-03-17T01:15:13.294Z,52.51
2018-03-17T01:16:13.238Z,52.89
2018-03-17T01:17:13.180Z,52.89
2018-03-17T01:18:13.123Z,52.80
2018-03-17T01:19:13.065Z,53.18
2018-03-17T01:20:13.008Z,52.99
2018-03-17T01:21:12.959Z,53.46
2018-03-17T01:22:12.894Z,53.75
2018-03-17T01:23:12.836Z,52.99
2018-03-17T01:24:12.779Z,53.18
2018-03-17T01:25:12.722Z,52.89
2018-03-17T01:26:12.666Z,52.99
2018-03-17T01:27:12.614Z,52.99
2018-03-17T01:28:12.550Z,52.70
2018-03-17T01:29:12.493Z,52.89
2018-03-17T01:30:12.442Z,52.99
2018-03-17T01:31:12.378Z,52.99
2018-03-17T01:32:12.371Z,52.78
2018-03-17T01:33:12.263Z,53.18
2018-03-17T01:34:12.206Z,52.89
2018-03-17T01:35:12.148Z,52.70
2018-03-17T01:36:12.091Z,52.78
2018-03-17T01:37:12.033Z,52.99
2018-03-17T01:38:11.976Z,52.99
2018-03-17T01:39:11.918Z,52.96
2018-03-17T01:40:11.911Z,52.96
2018-03-17T01:41:11.805Z,52.78
2018-03-17T01:42:11.747Z,52.78
2018-03-17T01:43:11.688Z,52.68
2018-03-17T01:44:11.631Z,52.87
2018-03-17T01:45:11.573Z,52.96
2018-03-17T01:46:11.517Z,53.06
2018-03-17T01:47:11.458Z,53.06
2018-03-17T01:48:11.401Z,53.34
2018-03-17T01:49:11.344Z,53.63
2018-03-17T01:50:11.286Z,53.81
2018-03-17T01:51:11.228Z,53.63
2018-03-17T01:52:11.170Z,53.06
2018-03-17T01:53:11.113Z,52.87
2018-03-17T01:54:11.056Z,52.68
2018-03-17T01:55:10.997Z,52.87
2018-03-17T01:56:10.940Z,52.96
2018-03-17T01:57:10.882Z,53.15
2018-03-17T01:58:10.825Z,52.87
2018-03-17T01:59:10.801Z,52.78
2018-03-17T02:00:10.709Z,52.87
2018-03-17T02:01:10.651Z,52.78
2018-03-17T02:02:10.594Z,53.15
2018-03-17T02:03:10.537Z,53.44
2018-03-17T02:04:10.477Z,53.15
2018-03-17T02:05:10.419Z,53.63
2018-03-17T02:06:10.362Z,53.63
2018-03-17T02:07:10.303Z,53.63
2018-03-17T02:08:10.247Z,54.00
2018-03-17T02:09:10.188Z,53.34
2018-03-17T02:10:10.130Z,53.25
2018-03-17T02:11:10.072Z,53.81
2018-03-17T02:12:10.014Z,53.72
2018-03-17T02:13:09.956Z,53.63
2018-03-17T02:14:09.899Z,53.53
2018-03-17T02:15:09.840Z,54.00
2018-03-17T02:16:09.782Z,53.25
2018-03-17T02:17:09.725Z,52.87
2018-03-17T02:18:09.667Z,52.96
2018-03-17T02:19:09.608Z,52.59
2018-03-17T02:20:09.591Z,52.87
2018-03-17T02:21:09.499Z,52.78
2018-03-17T02:22:09.447Z,52.78
2018-03-17T02:23:09.377Z,52.87
2018-03-17T02:24:09.319Z,52.87
2018-03-17T02:25:09.262Z,52.21
2018-03-17T02:26:09.204Z,52.30
2018-03-17T02:27:09.146Z,52.40
2018-03-17T02:28:09.088Z,53.06
2018-03-17T02:29:09.030Z,52.96
2018-03-17T02:30:08.983Z,52.59
2018-03-17T02:31:08.964Z,52.49
2018-03-17T02:32:08.857Z,52.40
2018-03-17T02:33:08.849Z,52.21
2018-03-17T02:34:08.742Z,52.21
2018-03-17T02:35:08.683Z,51.83
2018-03-17T02:36:08.626Z,52.21
2018-03-17T02:37:08.568Z,52.49
2018-03-17T02:38:08.510Z,52.30
2018-03-17T02:39:08.454Z,52.40
2018-03-17T02:40:08.395Z,52.96
2018-03-17T02:41:08.337Z,52.59
2018-03-17T02:42:08.306Z,52.78
2018-03-17T02:43:08.221Z,52.96
2018-03-17T02:44:08.173Z,52.87
2018-03-17T02:45:08.105Z,53.15
2018-03-17T02:46:08.049Z,52.68
2018-03-17T02:47:07.989Z,52.40
2018-03-17T02:48:07.932Z,52.49
2018-03-17T02:49:07.873Z,52.87
2018-03-17T02:50:07.820Z,52.78
2018-03-17T02:51:07.757Z,52.96
2018-03-17T02:52:07.699Z,53.44
2018-03-17T02:53:07.642Z,53.44
2018-03-17T02:54:07.583Z,53.53
2018-03-17T02:55:07.531Z,53.81
2018-03-17T02:56:07.467Z,53.81
2018-03-17T02:57:07.409Z,53.53
2018-03-17T02:58:07.351Z,53.53
2018-03-17T02:59:07.297Z,53.72
2018-03-17T03:00:07.234Z,53.44
2018-03-17T03:01:07.181Z,53.72
2018-03-17T03:02:07.118Z,53.44
2018-03-17T03:03:07.060Z,53.72
2018-03-17T03:04:07.001Z,53.91
2018-03-17T03:05:06.945Z,53.81
2018-03-17T03:06:06.887Z,53.81
2018-03-17T03:07:06.828Z,53.91
2018-03-17T03:08:06.770Z,53.81
2018-03-17T03:09:06.711Z,52.96
2018-03-17T03:10:06.654Z,53.63
2018-03-17T03:11:06.595Z,53.63
2018-03-17T03:12:06.537Z,53.72
2018-03-17T03:13:06.480Z,53.44
2018-03-17T03:14:06.422Z,53.53
2018-03-17T03:15:06.369Z,53.63
2018-03-17T03:16:06.305Z,53.63
2018-03-17T03:17:06.247Z,53.72
2018-03-17T03:18:06.192Z,53.72
2018-03-17T03:19:06.131Z,53.63
2018-03-17T03:20:06.073Z,53.81
2018-03-17T03:21:06.015Z,54.00
2018-03-17T03:22:05.957Z,53.91
2018-03-17T03:23:05.900Z,53.81
2018-03-17T03:24:05.841Z,53.72
2018-03-17T03:25:05.784Z,53.81
2018-03-17T03:26:05.725Z,53.91
2018-03-17T03:27:05.670Z,53.81
2018-03-17T03:28:05.610Z,53.44
2018-03-17T03:29:05.702Z,53.53
2018-03-17T03:30:05.494Z,53.53
2018-03-17T03:31:05.436Z,53.34
2018-03-17T03:32:05.377Z,53.53
2018-03-17T03:33:05.319Z,53.44
2018-03-17T03:34:05.261Z,53.53
2018-03-17T03:35:05.203Z,53.44
2018-03-17T03:36:05.145Z,53.72
2018-03-17T03:37:05.087Z,53.72
2018-03-17T03:38:05.029Z,53.34
2018-03-17T03:39:04.974Z,52.96
2018-03-17T03:40:04.913Z,52.96
2018-03-17T03:41:04.856Z,53.44
2018-03-17T03:42:04.801Z,53.06
2018-03-17T03:43:04.746Z,52.96
2018-03-17T03:44:04.682Z,52.87
2018-03-17T03:45:04.624Z,52.87
2018-03-17T03:46:04.572Z,53.15
2018-03-17T03:47:04.508Z,52.78
2018-03-17T03:48:04.450Z,52.96
2018-03-17T03:49:04.397Z,52.96
2018-03-17T03:50:04.335Z,52.87
2018-03-17T03:51:04.276Z,52.96
2018-03-17T03:52:04.219Z,52.87
2018-03-17T03:53:04.161Z,52.96
2018-03-17T03:54:04.104Z,52.96
2018-03-17T03:55:04.045Z,52.68
2018-03-17T03:56:03.987Z,52.78
2018-03-17T03:57:03.929Z,52.87
2018-03-17T03:58:03.874Z,52.78
2018-03-17T03:59:03.813Z,52.68
2018-03-17T04:00:03.755Z,52.68
2018-03-17T04:01:03.697Z,52.78
2018-03-17T04:02:03.639Z,52.78
2018-03-17T04:03:03.587Z,52.68
2018-03-17T04:04:03.523Z,52.78
2018-03-17T04:05:03.465Z,52.96
2018-03-17T04:06:03.407Z,52.78
2018-03-17T04:07:03.348Z,52.78
2018-03-17T04:08:03.292Z,52.87
2018-03-17T04:09:03.233Z,52.96
2018-03-17T04:10:03.175Z,52.96
2018-03-17T04:11:03.118Z,52.78
2018-03-17T04:12:03.058Z,52.78
2018-03-17T04:13:03.001Z,52.78
2018-03-17T04:14:02.944Z,52.78
2018-03-17T04:15:02.883Z,53.25
2018-03-17T04:16:02.826Z,53.15
2018-03-17T04:17:02.768Z,52.96
2018-03-17T04:18:02.710Z,52.78
2018-03-17T04:19:02.650Z,52.87
2018-03-17T04:20:02.593Z,53.15
2018-03-17T04:21:02.534Z,53.34
2018-03-17T04:22:02.477Z,53.72
2018-03-17T04:23:02.419Z,53.34
2018-03-17T04:24:02.360Z,53.53
2018-03-17T04:25:02.302Z,54.00
2018-03-17T04:26:02.244Z,53.72
2018-03-17T04:27:02.185Z,53.63
2018-03-17T04:28:02.177Z,53.91
2018-03-17T04:29:02.071Z,53.63
2018-03-17T04:30:02.013Z,53.81
2018-03-17T04:31:01.952Z,54.00
2018-03-17T04:32:01.894Z,53.53
2018-03-17T04:33:01.836Z,53.44
2018-03-17T04:34:01.828Z,53.72
2018-03-17T04:35:01.719Z,54.00
2018-03-17T04:36:01.663Z,53.91
2018-03-17T04:37:01.604Z,53.63
2018-03-17T04:38:01.545Z,53.91
2018-03-17T04:39:01.540Z,54.00
2018-03-17T04:40:01.430Z,53.53
2018-03-17T04:41:01.370Z,53.91
2018-03-17T04:42:01.312Z,53.91
2018-03-17T04:43:01.254Z,54.10
2018-03-17T04:44:01.196Z,53.81
2018-03-17T04:45:01.137Z,53.72
2018-03-17T04:46:01.080Z,54.10
2018-03-17T04:47:01.024Z,54.38
2018-03-17T04:48:00.963Z,54.75
2018-03-17T04:49:00.905Z,54.66
2018-03-17T04:50:00.854Z,54.38
2018-03-17T04:51:00.788Z,54.38
2018-03-17T04:52:00.731Z,54.75
2018-03-17T04:53:00.672Z,54.57
2018-03-17T04:54:00.614Z,54.57
2018-03-17T04:55:00.556Z,54.75
2018-03-17T04:56:00.497Z,54.66
2018-03-17T04:57:00.440Z,55.13
2018-03-17T04:58:00.388Z,54.66
2018-03-17T04:59:00.324Z,54.63
2018-03-17T05:00:00.319Z,54.73
2018-03-17T05:01:00.205Z,54.85
2018-03-17T05:02:00.147Z,55.01
2018-03-17T05:03:00.088Z,54.63
2018-03-17T05:04:00.035Z,55.20
2018-03-17T05:04:59.971Z,54.92
2018-03-17T05:05:59.915Z,55.01
2018-03-17T05:06:59.854Z,54.92
2018-03-17T05:07:59.796Z,55.20
2018-03-17T05:08:59.738Z,55.49
2018-03-17T05:09:59.690Z,55.49
2018-03-17T05:10:59.621Z,55.58
2018-03-17T05:11:59.562Z,55.77
2018-03-17T05:12:59.505Z,55.77
2018-03-17T05:13:59.446Z,55.77
2018-03-17T05:14:59.387Z,55.77
2018-03-17T05:15:59.379Z,55.86
2018-03-17T05:16:59.271Z,55.67
2018-03-17T05:17:59.213Z,55.67
2018-03-17T05:18:59.153Z,55.77
2018-03-17T05:19:59.096Z,55.67
2018-03-17T05:20:59.038Z,55.67
2018-03-17T05:21:58.983Z,55.86
2018-03-17T05:22:58.920Z,55.86
2018-03-17T05:23:58.862Z,55.77
2018-03-17T05:24:58.804Z,55.77
2018-03-17T05:25:58.746Z,55.77
2018-03-17T05:26:58.687Z,55.58
2018-03-17T05:27:58.629Z,55.77
2018-03-17T05:28:58.571Z,55.77
2018-03-17T05:29:58.514Z,56.15
2018-03-17T05:30:58.457Z,55.77
2018-03-17T05:31:58.395Z,56.43
2018-03-17T05:32:58.337Z,56.43
2018-03-17T05:33:58.284Z,56.43
2018-03-17T05:34:58.225Z,56.62
2018-03-17T05:35:58.162Z,56.52
2018-03-17T05:36:58.104Z,56.05
2018-03-17T05:37:58.094Z,55.61
2018-03-17T05:38:57.988Z,55.39
2018-03-17T05:39:57.930Z,55.86
2018-03-17T05:40:57.872Z,55.67
2018-03-17T05:41:57.814Z,55.32
2018-03-17T05:42:57.754Z,55.49
2018-03-17T05:43:57.697Z,55.30
2018-03-17T05:44:57.689Z,55.67
2018-03-17T05:45:57.582Z,55.70
2018-03-17T05:46:57.522Z,55.58
2018-03-17T05:47:57.463Z,55.49
2018-03-17T05:48:57.406Z,55.86
2018-03-17T05:49:57.350Z,55.70
2018-03-17T05:50:57.290Z,55.80
2018-03-17T05:51:57.232Z,55.58
2018-03-17T05:52:57.177Z,55.51
2018-03-17T05:53:57.116Z,55.20
2018-03-17T05:54:57.063Z,55.23
2018-03-17T05:55:57.001Z,55.23
2018-03-17T05:56:56.944Z,55.32
2018-03-17T05:57:56.884Z,55.23
2018-03-17T05:58:56.827Z,55.13
2018-03-17T05:59:56.774Z,55.42
2018-03-17T06:00:56.710Z,54.75
2018-03-17T06:01:56.654Z,54.75
2018-03-17T06:02:56.593Z,54.73
2018-03-17T06:03:56.535Z,54.92
2018-03-17T06:04:56.477Z,54.94
2018-03-17T06:05:56.419Z,54.57
2018-03-17T06:06:56.364Z,54.75
2018-03-17T06:07:56.303Z,54.85
2018-03-17T06:08:56.250Z,54.94
2018-03-17T06:09:56.187Z,54.66
2018-03-17T06:10:56.128Z,54.85
2018-03-17T06:11:56.070Z,54.75
2018-03-17T06:12:56.012Z,54.94
2018-03-17T06:13:55.955Z,55.23
2018-03-17T06:14:55.896Z,54.75
2018-03-17T06:15:55.838Z,54.66
2018-03-17T06:16:55.781Z,53.91
2018-03-17T06:17:55.723Z,53.63
2018-03-17T06:18:55.665Z,53.63
2018-03-17T06:19:55.607Z,53.44
2018-03-17T06:20:55.550Z,53.72
2018-03-17T06:21:55.493Z,53.91
2018-03-17T06:22:55.434Z,53.72
2018-03-17T06:23:55.377Z,53.91
2018-03-17T06:24:55.319Z,53.91
2018-03-17T06:25:55.261Z,53.81
2018-03-17T06:26:55.247Z,53.81
2018-03-17T06:27:55.146Z,53.91
2018-03-17T06:28:55.088Z,53.53
2018-03-17T06:29:55.031Z,53.63
2018-03-17T06:30:54.973Z,53.63
2018-03-17T06:31:54.920Z,53.53
2018-03-17T06:32:54.858Z,53.53
2018-03-17T06:33:54.802Z,53.72
2018-03-17T06:34:54.748Z,53.06
2018-03-17T06:35:54.686Z,52.78
2018-03-17T06:36:54.629Z,52.87
2018-03-17T06:37:54.572Z,52.78
2018-03-17T06:38:54.517Z,52.40
2018-03-17T06:39:54.456Z,53.15
2018-03-17T06:40:54.401Z,52.87
2018-03-17T06:41:54.342Z,53.15
2018-03-17T06:42:54.284Z,52.68
2018-03-17T06:43:54.227Z,53.06
2018-03-17T06:44:54.175Z,52.30
2018-03-17T06:45:54.113Z,52.68
2018-03-17T06:46:54.057Z,52.02
2018-03-17T06:47:53.997Z,52.30
2018-03-17T06:48:53.941Z,51.54
2018-03-17T06:49:53.934Z,51.64
2018-03-17T06:50:53.825Z,51.73
2018-03-17T06:51:53.768Z,51.73
2018-03-17T06:52:53.711Z,51.76
2018-03-17T06:53:53.655Z,50.84
2018-03-17T06:54:53.597Z,49.05
2018-03-17T06:55:53.543Z,47.37
2018-03-17T06:56:53.487Z,45.95
2018-03-17T06:57:53.426Z,45.12
2018-03-17T06:58:53.383Z,43.71
2018-03-17T06:59:53.318Z,43.63
2018-03-17T07:00:53.258Z,42.23
2018-03-17T07:01:53.203Z,41.50
2018-03-17T07:02:53.149Z,40.36
2018-03-17T07:03:53.093Z,38.77
2018-03-17T07:04:53.040Z,37.46
2018-03-17T07:05:52.994Z,36.70
2018-03-17T07:06:52.932Z,36.15
2018-03-17T07:07:52.880Z,35.60
2018-03-17T07:08:52.827Z,34.95
2018-03-17T07:09:52.776Z,33.73
2018-03-17T07:10:52.727Z,32.01
2018-03-17T07:11:52.672Z,30.57
2018-03-17T07:12:52.628Z,30.38
2018-03-17T07:13:52.572Z,30.55
2018-03-17T07:14:52.521Z,30.55
2018-03-17T07:15:52.476Z,31.02
2018-03-17T07:16:52.422Z,31.39
2018-03-17T07:17:52.377Z,31.39
2018-03-17T07:18:52.320Z,32.06
2018-03-17T07:19:52.270Z,32.07
2018-03-17T07:20:52.232Z,31.58
2018-03-17T07:21:52.171Z,31.87
2018-03-17T07:22:52.120Z,32.24
2018-03-17T07:23:52.070Z,32.17
2018-03-17T07:24:52.021Z,32.17
2018-03-17T07:25:51.971Z,31.80
2018-03-17T07:26:51.921Z,30.28
2018-03-17T07:27:51.874Z,29.70
2018-03-17T07:28:51.823Z,30.27
2018-03-17T07:29:51.774Z,30.36
2018-03-17T07:30:51.725Z,30.65
2018-03-17T07:31:51.675Z,30.36
2018-03-17T07:32:51.626Z,30.55
2018-03-17T07:33:51.580Z,29.87
2018-03-17T07:34:51.529Z,30.52
2018-03-17T07:35:51.477Z,31.37
2018-03-17T07:36:51.429Z,31.93
2018-03-17T07:37:51.386Z,32.68
2018-03-17T07:38:51.331Z,33.33
2018-03-17T07:39:51.277Z,33.92
2018-03-17T07:40:51.227Z,34.01
2018-03-17T07:41:51.177Z,34.11
2018-03-17T07:42:51.126Z,34.03
2018-03-17T07:43:51.076Z,33.38
2018-03-17T07:44:51.025Z,32.17
2018-03-17T07:45:50.975Z,31.52
2018-03-17T07:46:50.925Z,29.35
2018-03-17T07:47:50.926Z,28.88
2018-03-17T07:48:50.829Z,28.40
2018-03-17T07:49:50.778Z,28.22
2018-03-17T07:50:50.730Z,27.08
2018-03-17T07:51:50.681Z,26.88
2018-03-17T07:52:50.634Z,27.07
2018-03-17T07:53:50.586Z,26.97
2018-03-17T07:54:50.537Z,27.16
2018-03-17T07:55:50.489Z,27.16
2018-03-17T07:56:50.442Z,27.16
2018-03-17T07:57:50.394Z,26.61
2018-03-17T07:58:50.346Z,26.23
2018-03-17T07:59:50.299Z,26.13
2018-03-17T08:00:50.252Z,25.95
2018-03-17T08:01:50.208Z,25.86
2018-03-17T08:02:50.169Z,24.91
2018-03-17T08:03:50.112Z,24.80
2018-03-17T08:04:50.065Z,24.88
2018-03-17T08:05:50.019Z,26.12
2018-03-17T08:06:49.972Z,26.88
2018-03-17T08:07:49.925Z,27.06
2018-03-17T08:08:49.878Z,26.77
2018-03-17T08:09:49.832Z,27.15
2018-03-17T08:10:49.783Z,27.36
2018-03-17T08:11:49.737Z,27.08
2018-03-17T08:12:49.690Z,26.34
2018-03-17T08:13:49.644Z,26.25
2018-03-17T08:14:49.596Z,24.92
2018-03-17T08:15:49.550Z,24.55
2018-03-17T08:16:49.508Z,23.52
2018-03-17T08:17:49.460Z,23.42
2018-03-17T08:18:49.413Z,22.75
2018-03-17T08:19:49.367Z,22.55
2018-03-17T08:20:49.323Z,22.27
2018-03-17T08:21:49.278Z,22.35
2018-03-17T08:22:49.232Z,22.64
2018-03-17T08:23:49.187Z,22.74
2018-03-17T08:24:49.142Z,23.49
2018-03-17T08:25:49.097Z,23.40
2018-03-17T08:26:49.054Z,23.21
2018-03-17T08:27:49.007Z,23.30
2018-03-17T08:28:48.962Z,22.92
2018-03-17T08:29:48.918Z,23.11
2018-03-17T08:30:48.872Z,23.29
2018-03-17T08:31:48.827Z,23.28
2018-03-17T08:32:48.782Z,24.32
2018-03-17T08:33:48.737Z,24.86
2018-03-17T08:34:48.689Z,26.46
2018-03-17T08:35:48.643Z,27.68
2018-03-17T08:36:48.606Z,28.53
2018-03-17T08:37:48.549Z,29.38
2018-03-17T08:38:48.500Z,29.57
2018-03-17T08:39:48.452Z,29.29
2018-03-17T08:40:48.404Z,29.76
2018-03-17T08:41:48.356Z,30.33
2018-03-17T08:42:48.306Z,30.33
2018-03-17T08:43:48.273Z,30.71
2018-03-17T08:44:48.208Z,30.98
2018-03-17T08:45:48.158Z,31.17
2018-03-17T08:46:48.113Z,31.45
2018-03-17T08:47:48.058Z,31.83
2018-03-17T08:48:48.012Z,32.20
2018-03-17T08:49:47.957Z,32.57
2018-03-17T08:50:47.907Z,32.76
2018-03-17T08:51:47.856Z,33.23
2018-03-17T08:52:47.808Z,33.43
2018-03-17T08:53:47.752Z,34.09
2018-03-17T08:54:47.700Z,34.47
2018-03-17T08:55:47.648Z,34.45
2018-03-17T08:56:47.612Z,34.45
2018-03-17T08:57:47.547Z,34.74
2018-03-17T08:58:47.570Z,35.21
2018-03-17T08:59:47.445Z,35.21
2018-03-17T09:00:47.386Z,35.21
2018-03-17T09:01:47.333Z,35.58
2018-03-17T09:02:47.288Z,35.49
2018-03-17T09:03:47.228Z,35.30
2018-03-17T09:04:47.175Z,35.13
2018-03-17T09:05:47.124Z,34.28
2018-03-17T09:06:47.069Z,34.28
2018-03-17T09:07:47.016Z,34.38
2018-03-17T09:08:46.963Z,34.47
2018-03-17T09:09:46.911Z,34.47
2018-03-17T09:10:46.870Z,34.28
2018-03-17T09:11:46.804Z,34.17
2018-03-17T09:12:46.752Z,34.45
2018-03-17T09:13:46.698Z,35.21
2018-03-17T09:14:46.646Z,35.58
2018-03-17T09:15:46.592Z,35.68
2018-03-17T09:16:46.538Z,35.87
2018-03-17T09:17:46.485Z,36.06
2018-03-17T09:18:46.431Z,36.35
2018-03-17T09:19:46.384Z,35.87
2018-03-17T09:20:46.325Z,35.87
2018-03-17T09:21:46.328Z,35.39
2018-03-17T09:22:46.217Z,35.39
2018-03-17T09:23:46.164Z,35.49
2018-03-17T09:24:46.111Z,35.77
2018-03-17T09:25:46.058Z,35.30
2018-03-17T09:26:46.008Z,35.49
2018-03-17T09:27:45.951Z,35.77
2018-03-17T09:28:45.898Z,35.96
2018-03-17T09:29:45.845Z,35.58
2018-03-17T09:30:45.791Z,35.30
2018-03-17T09:31:45.737Z,35.03
2018-03-17T09:32:45.685Z,34.28
2018-03-17T09:33:45.633Z,34.00
2018-03-17T09:34:45.629Z,33.43
2018-03-17T09:35:45.527Z,33.35
2018-03-17T09:36:45.475Z,33.63
2018-03-17T09:37:45.423Z,33.46
2018-03-17T09:38:45.374Z,32.91
2018-03-17T09:39:45.320Z,31.69
2018-03-17T09:40:45.268Z,30.17
2018-03-17T09:41:45.218Z,29.33
2018-03-17T09:42:45.166Z,28.68
2018-03-17T09:43:45.117Z,28.11
2018-03-17T09:44:45.067Z,27.53
2018-03-17T09:45:45.019Z,27.25
2018-03-17T09:46:44.969Z,27.33
2018-03-17T09:47:44.921Z,27.70
2018-03-17T09:48:44.872Z,28.26
2018-03-17T09:49:44.823Z,28.91
2018-03-17T09:50:44.773Z,29.29
2018-03-17T09:51:44.724Z,30.32
2018-03-17T09:52:44.675Z,31.44
2018-03-17T09:53:44.626Z,32.39
2018-03-17T09:54:44.574Z,32.76
2018-03-17T09:55:44.524Z,33.33
2018-03-17T09:56:44.474Z,33.43
2018-03-17T09:57:44.426Z,34.17
2018-03-17T09:58:44.372Z,34.17
2018-03-17T09:59:44.320Z,34.26
2018-03-17T10:00:44.269Z,35.21
2018-03-17T10:01:44.223Z,35.57
2018-03-17T10:02:44.165Z,35.76
2018-03-17T10:03:44.113Z,35.77
2018-03-17T10:04:44.061Z,36.33
2018-03-17T10:05:44.021Z,36.42
2018-03-17T10:06:43.955Z,36.33
2018-03-17T10:07:43.903Z,36.52
2018-03-17T10:08:43.850Z,36.71
2018-03-17T10:09:43.797Z,37.08
2018-03-17T10:10:43.742Z,37.37
2018-03-17T10:11:43.690Z,37.27
2018-03-17T10:12:43.640Z,37.65
2018-03-17T10:13:43.583Z,37.93
2018-03-17T10:14:43.529Z,37.93
2018-03-17T10:15:43.475Z,37.67
2018-03-17T10:16:43.422Z,37.38
2018-03-17T10:17:43.368Z,36.35
2018-03-17T10:18:43.314Z,36.80
2018-03-17T10:19:43.260Z,36.61
2018-03-17T10:20:43.207Z,36.71
2018-03-17T10:21:43.153Z,36.72
2018-03-17T10:22:43.099Z,36.63
2018-03-17T10:23:43.045Z,36.72
2018-03-17T10:24:42.992Z,36.82
2018-03-17T10:25:42.938Z,36.82
2018-03-17T10:26:42.883Z,36.82
2018-03-17T10:27:42.837Z,36.91
2018-03-17T10:28:42.777Z,36.90
2018-03-17T10:29:42.723Z,36.99
2018-03-17T10:30:42.668Z,37.18
2018-03-17T10:31:42.615Z,37.29
2018-03-17T10:32:42.561Z,37.29
2018-03-17T10:33:42.509Z,37.19
2018-03-17T10:34:42.456Z,37.10
2018-03-17T10:35:42.399Z,36.82
2018-03-17T10:36:42.346Z,36.63
2018-03-17T10:37:42.292Z,36.82
2018-03-17T10:38:42.238Z,36.44
2018-03-17T10:39:42.185Z,35.68
2018-03-17T10:40:42.131Z,35.68
2018-03-17T10:41:42.077Z,35.68
2018-03-17T10:42:42.023Z,36.15
2018-03-17T10:43:41.999Z,36.35
2018-03-17T10:44:41.916Z,36.06
2018-03-17T10:45:41.863Z,36.06
2018-03-17T10:46:41.808Z,36.35
2018-03-17T10:47:41.756Z,36.15
2018-03-17T10:48:41.702Z,36.06
2018-03-17T10:49:41.648Z,36.54
2018-03-17T10:50:41.594Z,36.33
2018-03-17T10:51:41.545Z,36.35
2018-03-17T10:52:41.486Z,36.71
2018-03-17T10:53:41.432Z,37.08
2018-03-17T10:54:41.377Z,36.80
2018-03-17T10:55:41.324Z,37.46
2018-03-17T10:56:41.269Z,37.46
2018-03-17T10:57:41.215Z,37.18
2018-03-17T10:58:41.160Z,37.46
2018-03-17T10:59:41.106Z,37.46
2018-03-17T11:00:41.053Z,37.74
2018-03-17T11:01:40.998Z,37.74
2018-03-17T11:02:40.943Z,37.84
2018-03-17T11:03:40.889Z,37.74
2018-03-17T11:04:40.835Z,38.31
2018-03-17T11:05:40.780Z,38.60
2018-03-17T11:06:40.725Z,38.71
2018-03-17T11:07:40.671Z,38.43
2018-03-17T11:08:40.617Z,37.67
2018-03-17T11:09:40.562Z,37.57
2018-03-17T11:10:40.508Z,37.84
2018-03-17T11:11:40.506Z,38.03
2018-03-17T11:12:40.399Z,37.84
2018-03-17T11:13:40.345Z,38.12
2018-03-17T11:14:40.292Z,38.60
2018-03-17T11:15:40.240Z,38.79
2018-03-17T11:16:40.181Z,38.88
2018-03-17T11:17:40.288Z,38.69
2018-03-17T11:18:40.072Z,38.50
2018-03-17T11:19:40.018Z,38.60
2018-03-17T11:20:39.963Z,38.69
2018-03-17T11:21:39.909Z,38.98
2018-03-17T11:22:39.854Z,38.88
2018-03-17T11:23:39.799Z,38.88
2018-03-17T11:24:39.745Z,38.88
2018-03-17T11:25:39.690Z,38.69
2018-03-17T11:26:39.635Z,38.88
2018-03-17T11:27:39.580Z,38.98
2018-03-17T11:28:39.525Z,38.88
2018-03-17T11:29:39.473Z,38.88
2018-03-17T11:30:39.415Z,38.88
2018-03-17T11:31:39.360Z,38.98
2018-03-17T11:32:39.311Z,38.69
2018-03-17T11:33:39.252Z,38.62
2018-03-17T11:34:39.199Z,38.33
2018-03-17T11:35:39.142Z,38.05
2018-03-17T11:36:39.088Z,38.05
2018-03-17T11:37:39.034Z,38.22
2018-03-17T11:38:39.016Z,37.93
2018-03-17T11:39:38.925Z,38.31
2018-03-17T11:40:38.903Z,38.41
2018-03-17T11:41:38.815Z,38.31
2018-03-17T11:42:38.759Z,38.31
2018-03-17T11:43:38.706Z,38.50
2018-03-17T11:44:38.651Z,38.50
2018-03-17T11:45:38.597Z,38.60
2018-03-17T11:46:38.541Z,38.50
2018-03-17T11:47:38.487Z,38.79
2018-03-17T11:48:38.432Z,38.98
2018-03-17T11:49:38.378Z,39.00
2018-03-17T11:50:38.322Z,38.43
2018-03-17T11:51:38.268Z,37.95
2018-03-17T11:52:38.214Z,37.48
2018-03-17T11:53:38.160Z,37.48
2018-03-17T11:54:38.131Z,37.48
2018-03-17T11:55:38.051Z,37.48
2018-03-17T11:56:37.996Z,37.01
2018-03-17T11:57:37.943Z,36.82
2018-03-17T11:58:37.887Z,37.48
2018-03-17T11:59:37.833Z,37.10
2018-03-17T12:00:37.778Z,37.38
2018-03-17T12:01:37.725Z,37.38
2018-03-17T12:02:37.671Z,37.48
2018-03-17T12:03:37.618Z,37.38
2018-03-17T12:04:37.561Z,37.57
2018-03-17T12:05:37.508Z,37.48
2018-03-17T12:06:37.452Z,37.76
2018-03-17T12:07:37.399Z,37.86
2018-03-17T12:08:37.345Z,37.95
2018-03-17T12:09:37.290Z,37.86
2018-03-17T12:10:37.237Z,37.67
2018-03-17T12:11:37.181Z,37.67
2018-03-17T12:12:37.127Z,37.67
2018-03-17T12:13:37.073Z,37.67
2018-03-17T12:14:37.018Z,37.95
2018-03-17T12:15:36.965Z,38.05
2018-03-17T12:16:36.910Z,38.33
2018-03-17T12:17:36.855Z,38.50
2018-03-17T12:18:36.800Z,38.98
2018-03-17T12:19:36.746Z,38.88
2018-03-17T12:20:36.691Z,38.60
2018-03-17T12:21:36.637Z,38.60
2018-03-17T12:22:36.582Z,38.88
2018-03-17T12:23:36.527Z,38.98
2018-03-17T12:24:36.473Z,39.07
2018-03-17T12:25:36.425Z,39.07
2018-03-17T12:26:36.363Z,38.88
2018-03-17T12:27:36.314Z,38.98
2018-03-17T12:28:36.254Z,38.60
2018-03-17T12:29:36.200Z,38.41
2018-03-17T12:30:36.144Z,38.41
2018-03-17T12:31:36.090Z,38.41
2018-03-17T12:32:36.035Z,38.69
2018-03-17T12:33:35.981Z,38.81
2018-03-17T12:34:35.924Z,38.90
2018-03-17T12:35:35.871Z,38.71
2018-03-17T12:36:35.816Z,38.24
2018-03-17T12:37:35.762Z,38.33
2018-03-17T12:38:35.710Z,38.24
2018-03-17T12:39:35.659Z,37.95
2018-03-17T12:40:35.599Z,37.76
2018-03-17T12:41:35.544Z,37.38
2018-03-17T12:42:35.491Z,37.57
2018-03-17T12:43:35.435Z,37.76
2018-03-17T12:44:35.380Z,37.93
2018-03-17T12:45:35.326Z,38.03
2018-03-17T12:46:35.271Z,38.31
2018-03-17T12:47:35.243Z,38.41
2018-03-17T12:48:35.162Z,38.31
2018-03-17T12:49:35.110Z,38.41
2018-03-17T12:50:35.052Z,38.60
2018-03-17T12:51:34.998Z,38.69